createdAt,value
2023-02-11T00:01:16.456Z,71.27
2023-02-11T00:03:43.432Z,70.09
2023-02-11T00:06:11.586Z,70.27
2023-02-11T00:08:39.228Z,70.03
2023-02-11T00:11:06.731Z,70.22
2023-02-11T00:13:33.926Z,71.37
2023-02-11T00:16:00.786Z,71.95
2023-02-11T00:18:28.301Z,72.20
2023-02-11T00:20:55.172Z,73.22
2023-02-11T00:23:22.040Z,73.29
2023-02-11T00:25:49.155Z,73.67
2023-02-11T00:28:16.330Z,73.71
2023-02-11T00:30:43.541Z,74.52
2023-02-11T00:33:10.442Z,75.02
2023-02-11T00:35:38.794Z,75.60
2023-02-11T00:38:07.897Z,76.10
2023-02-11T00:40:34.793Z,76.62
2023-02-11T00:43:03.481Z,76.59
2023-02-11T00:45:30.867Z,76.78
2023-02-11T00:47:58.081Z,76.73
2023-02-11T00:50:25.371Z,76.57
2023-02-11T00:52:52.244Z,77.13
2023-02-11T00:55:19.186Z,76.66
2023-02-11T00:57:46.131Z,76.16
2023-02-11T01:00:14.489Z,76.35
2023-02-11T01:02:41.481Z,76.16
2023-02-11T01:05:09.962Z,75.40
2023-02-11T01:07:36.914Z,75.05
2023-02-11T01:10:04.648Z,74.67
2023-02-11T01:12:33.474Z,74.63
2023-02-11T01:15:01.421Z,75.14
2023-02-11T01:17:28.357Z,75.46
2023-02-11T01:19:55.291Z,75.78
2023-02-11T01:22:22.260Z,76.20
2023-02-11T01:24:49.199Z,76.34
2023-02-11T01:27:16.190Z,75.51
2023-02-11T01:29:44.693Z,74.85
2023-02-11T01:32:11.750Z,74.81
2023-02-11T01:34:38.635Z,74.31
2023-02-11T01:37:05.709Z,73.79
2023-02-11T01:39:36.226Z,73.36
2023-02-11T01:42:03.200Z,73.14
2023-02-11T01:44:34.670Z,72.94
2023-02-11T01:47:01.901Z,73.21
2023-02-11T01:49:38.963Z,73.55
2023-02-11T01:52:19.702Z,73.68
2023-02-11T01:55:09.810Z,74.26
2023-02-11T01:57:40.029Z,74.19
2023-02-11T02:00:15.636Z,74.38
2023-02-11T02:03:07.007Z,73.75
2023-02-11T02:05:49.708Z,73.77
2023-02-11T02:08:29.582Z,73.92
2023-02-11T02:10:58.615Z,73.97
2023-02-11T02:13:25.996Z,74.05
2023-02-11T02:15:58.307Z,74.00
2023-02-11T02:18:48.946Z,73.38
2023-02-11T02:22:01.652Z,73.72
2023-02-11T02:24:48.501Z,73.93
2023-02-11T02:27:54.885Z,73.56
2023-02-11T02:30:30.647Z,73.36
2023-02-11T02:33:23.456Z,73.32
2023-02-11T02:36:21.005Z,73.71
2023-02-11T02:39:26.361Z,73.21
2023-02-11T02:41:55.221Z,73.42
2023-02-11T02:44:22.481Z,73.59
2023-02-11T02:46:49.377Z,73.40
2023-02-11T02:49:17.325Z,73.18
2023-02-11T02:52:16.674Z,72.69
2023-02-11T02:55:17.125Z,73.00
2023-02-11T02:58:08.740Z,73.60
2023-02-11T03:01:01.976Z,73.22
2023-02-11T03:03:34.963Z,73.58
2023-02-11T03:06:09.519Z,73.55
2023-02-11T03:08:49.448Z,73.23
2023-02-11T03:11:19.621Z,72.49
2023-02-11T03:13:48.790Z,72.23
2023-02-11T03:16:21.366Z,72.10
2023-02-11T03:18:52.909Z,71.35
2023-02-11T03:21:20.946Z,71.34
2023-02-11T03:23:55.293Z,71.04
2023-02-11T03:26:39.221Z,71.11
2023-02-11T03:29:14.008Z,70.71
2023-02-11T03:31:51.650Z,70.53
2023-02-11T03:34:36.458Z,69.77
2023-02-11T03:37:09.474Z,69.91
2023-02-11T03:39:40.799Z,69.85
2023-02-11T03:42:10.909Z,69.86
2023-02-11T03:44:46.616Z,69.37
2023-02-11T03:47:15.559Z,69.53
2023-02-11T03:49:46.146Z,69.70
2023-02-11T03:52:14.879Z,69.94
2023-02-11T03:54:43.964Z,69.86
2023-02-11T03:57:10.997Z,70.08
2023-02-11T03:59:55.185Z,70.57
2023-02-11T04:02:29.458Z,70.07
2023-02-11T04:04:56.397Z,70.17
2023-02-11T04:07:23.715Z,70.80
2023-02-11T04:09:50.829Z,70.82
2023-02-11T04:12:17.772Z,70.87
2023-02-11T04:14:44.888Z,70.98
2023-02-11T04:17:12.481Z,71.64
2023-02-11T04:19:39.837Z,72.81
2023-02-11T04:22:07.113Z,72.59
2023-02-11T04:24:34.714Z,74.39
2023-02-11T04:27:01.697Z,75.06
2023-02-11T04:29:28.744Z,75.39
2023-02-11T04:31:56.009Z,75.84
2023-02-11T04:34:23.416Z,76.19
2023-02-11T04:36:51.136Z,76.50
2023-02-11T04:39:18.109Z,76.48
2023-02-11T04:41:45.009Z,76.67
2023-02-11T04:44:11.885Z,76.46
2023-02-11T04:46:38.848Z,76.46
2023-02-11T04:49:05.944Z,76.98
2023-02-11T04:51:33.307Z,77.65
2023-02-11T04:54:00.187Z,77.84
2023-02-11T04:56:27.088Z,77.77
2023-02-11T04:58:54.017Z,78.05
2023-02-11T05:01:20.937Z,78.69
2023-02-11T05:03:47.950Z,78.10
2023-02-11T05:06:14.986Z,78.08
2023-02-11T05:08:41.951Z,78.32
2023-02-11T05:11:17.582Z,77.30
2023-02-11T05:13:44.609Z,74.85
2023-02-11T05:16:12.043Z,73.80
2023-02-11T05:18:41.020Z,72.63
2023-02-11T05:21:10.070Z,72.33
2023-02-11T05:23:37.235Z,71.96
2023-02-11T05:26:05.186Z,71.93
2023-02-11T05:28:32.831Z,71.47
2023-02-11T05:30:59.927Z,71.29
2023-02-11T05:33:26.916Z,70.87
2023-02-11T05:36:00.256Z,71.06
2023-02-11T05:38:27.798Z,70.67
2023-02-11T05:40:54.981Z,70.21
2023-02-11T05:43:21.978Z,69.63
2023-02-11T05:45:49.091Z,69.55
2023-02-11T05:48:16.584Z,69.39
2023-02-11T05:50:43.981Z,69.59
2023-02-11T05:53:11.547Z,69.13
2023-02-11T05:55:38.925Z,67.76
2023-02-11T05:58:06.708Z,67.85
2023-02-11T06:00:34.208Z,67.41
2023-02-11T06:03:01.169Z,65.42
2023-02-11T06:05:28.107Z,65.74
2023-02-11T06:07:55.259Z,63.80
2023-02-11T06:10:22.196Z,61.96
2023-02-11T06:12:49.289Z,63.87
2023-02-11T06:15:16.385Z,62.92
2023-02-11T06:17:43.265Z,62.25
2023-02-11T06:20:11.288Z,59.97
2023-02-11T06:22:38.476Z,58.96
2023-02-11T06:25:05.810Z,57.35
2023-02-11T06:27:32.893Z,56.97
2023-02-11T06:29:59.789Z,56.85
2023-02-11T06:32:45.630Z,56.81
2023-02-11T06:35:14.557Z,56.54
2023-02-11T06:37:42.466Z,54.72
2023-02-11T06:40:10.823Z,52.82
2023-02-11T06:42:39.394Z,54.32
2023-02-11T06:45:09.169Z,53.88
2023-02-11T06:47:36.275Z,54.90
2023-02-11T06:50:03.997Z,54.49
2023-02-11T06:52:30.976Z,55.29
2023-02-11T06:54:57.870Z,53.82
2023-02-11T06:57:24.946Z,53.92
2023-02-11T06:59:52.044Z,55.67
2023-02-11T07:02:20.869Z,55.29
2023-02-11T07:04:48.036Z,54.84
2023-02-11T07:07:14.996Z,52.55
2023-02-11T07:09:42.172Z,54.60
2023-02-11T07:12:11.988Z,55.08
2023-02-11T07:14:39.188Z,53.94
2023-02-11T07:17:06.170Z,54.72
2023-02-11T07:19:33.206Z,55.84
2023-02-11T07:22:00.293Z,55.47
2023-02-11T07:24:27.423Z,55.92
2023-02-11T07:26:54.595Z,54.58
2023-02-11T07:29:21.919Z,55.09
2023-02-11T07:31:49.050Z,54.49
2023-02-11T07:34:16.080Z,53.28
2023-02-11T07:36:46.044Z,53.65
2023-02-11T07:39:13.122Z,55.03
2023-02-11T07:41:40.266Z,54.98
2023-02-11T07:44:07.606Z,54.27
2023-02-11T07:46:35.946Z,54.99
2023-02-11T07:49:03.190Z,55.15
2023-02-11T07:51:31.606Z,55.86
2023-02-11T07:54:00.001Z,56.12
2023-02-11T07:56:28.001Z,56.91
2023-02-11T07:58:56.907Z,57.82
2023-02-11T08:01:28.573Z,57.12
2023-02-11T08:03:57.090Z,57.94
2023-02-11T08:06:27.065Z,57.36
2023-02-11T08:08:54.278Z,57.58
2023-02-11T08:11:26.657Z,57.68
2023-02-11T08:13:54.434Z,58.01
2023-02-11T08:16:25.011Z,58.22
2023-02-11T08:18:53.307Z,59.39
2023-02-11T08:21:20.906Z,59.57
2023-02-11T08:23:48.080Z,58.97
2023-02-11T08:26:18.376Z,59.75
2023-02-11T08:28:46.871Z,57.92
2023-02-11T08:31:23.904Z,57.68
2023-02-11T08:33:51.529Z,59.49
2023-02-11T08:36:24.252Z,57.85
2023-02-11T08:38:51.520Z,59.26
2023-02-11T08:41:18.498Z,57.93
2023-02-11T08:43:47.354Z,58.47
2023-02-11T08:46:17.890Z,58.33
2023-02-11T08:48:45.966Z,57.44
2023-02-11T08:51:18.853Z,57.85
2023-02-11T08:53:46.302Z,57.17
2023-02-11T08:56:15.010Z,57.80
2023-02-11T08:58:42.331Z,58.73
2023-02-11T09:01:10.986Z,57.84
2023-02-11T09:03:37.909Z,58.79
2023-02-11T09:06:06.756Z,57.52
2023-02-11T09:08:38.816Z,57.55
2023-02-11T09:11:05.945Z,59.35
2023-02-11T09:13:33.694Z,58.02
2023-02-11T09:16:02.119Z,57.60
2023-02-11T09:18:29.335Z,60.13
2023-02-11T09:21:07.432Z,56.94
2023-02-11T09:23:34.744Z,56.99
2023-02-11T09:26:20.080Z,56.26
2023-02-11T09:28:47.795Z,58.70
2023-02-11T09:31:17.382Z,59.76
2023-02-11T09:33:49.970Z,58.04
2023-02-11T09:36:20.139Z,59.85
2023-02-11T09:38:47.720Z,58.50
2023-02-11T09:41:48.061Z,56.28
2023-02-11T09:44:22.503Z,55.78
2023-02-11T10:18:17.542Z,58.51
2023-02-11T10:21:15.091Z,56.93
2023-02-11T10:23:44.599Z,58.19
2023-02-11T10:26:19.179Z,57.72
2023-02-11T10:28:53.217Z,56.27
2023-02-11T10:31:34.363Z,58.39
2023-02-11T10:34:12.093Z,58.42
2023-02-11T10:36:42.301Z,56.82
2023-02-11T10:39:20.936Z,59.00
2023-02-11T10:41:55.495Z,57.19
2023-02-11T10:44:31.416Z,58.05
2023-02-11T10:47:05.567Z,55.49
2023-02-11T10:49:41.711Z,54.40
2023-02-11T10:52:17.761Z,57.32
2023-02-11T10:55:03.096Z,56.70
2023-02-11T10:58:03.103Z,56.67
2023-02-11T11:00:42.454Z,56.17
2023-02-11T11:03:40.995Z,57.57
2023-02-11T11:06:10.760Z,54.95
2023-02-11T11:08:51.759Z,57.12
2023-02-11T11:11:21.614Z,56.24
2023-02-11T11:14:03.434Z,56.69
2023-02-11T11:16:32.709Z,56.67
2023-02-11T11:19:08.314Z,59.57
2023-02-11T11:21:51.587Z,57.75
2023-02-11T11:24:21.163Z,55.62
2023-02-11T11:26:52.011Z,56.68
2023-02-11T11:29:39.847Z,57.18
2023-02-11T11:32:16.341Z,56.09
2023-02-11T11:34:55.663Z,55.84
2023-02-11T11:37:32.169Z,58.72
2023-02-11T11:40:07.810Z,57.85
2023-02-11T11:42:37.559Z,57.02
2023-02-11T11:45:16.489Z,57.75
2023-02-11T11:48:11.744Z,57.38
2023-02-11T11:50:50.299Z,56.92
2023-02-11T11:53:45.377Z,55.92
2023-02-11T11:56:14.679Z,56.71
2023-02-11T11:58:41.729Z,57.50
2023-02-11T12:01:20.737Z,56.18
2023-02-11T12:04:14.373Z,57.29
2023-02-11T12:07:04.051Z,52.98
2023-02-11T12:10:07.171Z,52.07
2023-02-11T12:12:53.151Z,51.19
2023-02-11T12:15:41.410Z,53.38
2023-02-11T12:18:36.222Z,53.82
2023-02-11T12:21:23.237Z,54.38
2023-02-11T12:23:56.032Z,53.24
2023-02-11T12:26:29.107Z,52.43
2023-02-11T12:29:19.217Z,53.80
2023-02-11T12:31:56.656Z,51.08
2023-02-11T12:34:49.780Z,53.44
2023-02-11T12:37:38.171Z,52.87
2023-02-11T12:40:17.095Z,50.94
2023-02-11T12:43:08.685Z,48.78
2023-02-11T12:46:00.395Z,51.09
2023-02-11T12:48:56.737Z,48.66
2023-02-11T12:51:36.803Z,48.51
2023-02-11T12:54:38.114Z,50.68
2023-02-11T12:57:36.511Z,49.76
2023-02-11T13:00:26.885Z,48.73
2023-02-11T13:03:02.299Z,51.10
2023-02-11T13:05:43.103Z,50.86
2023-02-11T13:08:37.659Z,50.12
2023-02-11T13:11:14.368Z,48.71
2023-02-11T13:13:56.303Z,47.80
2023-02-11T13:16:44.654Z,47.81
2023-02-11T13:19:14.658Z,51.20
2023-02-11T13:22:07.856Z,50.75
2023-02-11T13:24:42.470Z,51.36
2023-02-11T13:27:30.082Z,51.66
2023-02-11T13:30:21.351Z,49.27
2023-02-11T13:32:54.175Z,51.00
2023-02-11T13:35:29.775Z,50.88
2023-02-11T13:37:59.165Z,51.41
2023-02-11T13:40:37.870Z,51.03
2023-02-11T13:43:07.282Z,49.83
2023-02-11T13:45:44.431Z,49.61
2023-02-11T13:48:20.384Z,50.14
2023-02-11T13:50:51.220Z,50.68
2023-02-11T13:53:19.258Z,49.43
2023-02-11T13:55:49.227Z,50.80
2023-02-11T13:58:17.665Z,50.66
2023-02-11T14:00:50.693Z,50.55
2023-02-11T14:04:06.836Z,52.42
2023-02-11T14:06:52.426Z,47.18
2023-02-11T14:09:22.046Z,49.59
2023-02-11T14:12:26.373Z,50.40
2023-02-11T14:15:03.821Z,49.33
2023-02-11T14:17:34.447Z,49.81
2023-02-11T14:20:04.712Z,47.91
2023-02-11T14:22:44.359Z,48.64
2023-02-11T14:25:22.964Z,49.15
2023-02-11T14:28:16.472Z,49.17
2023-02-11T14:31:03.974Z,49.16
2023-02-11T14:33:42.566Z,50.76
2023-02-11T14:36:36.971Z,48.39
2023-02-11T14:39:18.523Z,50.04
2023-02-11T14:41:48.970Z,48.65
2023-02-11T14:44:20.739Z,48.48
2023-02-11T14:46:50.918Z,49.29
2023-02-11T14:49:29.372Z,50.68
2023-02-11T14:52:04.341Z,52.33
2023-02-11T14:54:32.450Z,52.08
2023-02-11T14:57:06.638Z,51.04
2023-02-11T14:59:33.614Z,50.68
2023-02-11T15:02:00.501Z,49.79
2023-02-11T15:04:33.669Z,52.03
2023-02-11T15:07:07.096Z,51.94
2023-02-11T15:09:42.771Z,52.78
2023-02-11T15:12:28.614Z,52.70
2023-02-11T15:14:59.138Z,53.50
2023-02-11T15:17:30.766Z,53.79
2023-02-11T15:20:01.979Z,54.29
2023-02-11T15:22:33.232Z,56.55
2023-02-11T15:25:15.069Z,56.58
2023-02-11T15:27:44.807Z,57.86
2023-02-11T15:30:23.986Z,59.24
2023-02-11T15:32:58.797Z,57.71
2023-02-11T15:35:44.589Z,58.61
2023-02-11T15:38:13.592Z,60.24
2023-02-11T15:40:40.522Z,61.60
2023-02-11T15:43:10.148Z,62.83
2023-02-11T15:45:44.403Z,62.87
2023-02-11T15:48:18.837Z,61.96
2023-02-11T15:50:55.571Z,61.62
2023-02-11T15:53:29.329Z,63.30
2023-02-11T15:56:25.711Z,64.70
2023-02-11T15:58:56.130Z,65.32
2023-02-11T16:01:37.442Z,65.76
2023-02-11T16:04:05.849Z,65.53
2023-02-11T16:06:41.088Z,65.56
2023-02-11T16:09:13.682Z,65.74
2023-02-11T16:11:46.303Z,65.80
2023-02-11T16:14:30.041Z,66.00
2023-02-11T16:17:03.886Z,66.06
2023-02-11T16:19:32.977Z,67.28
2023-02-11T16:22:08.568Z,67.22
2023-02-11T16:24:38.079Z,67.82
2023-02-11T16:27:29.832Z,68.63
2023-02-11T16:29:58.691Z,69.17
2023-02-11T16:32:28.120Z,69.20
2023-02-11T16:34:58.709Z,69.17
2023-02-11T16:37:25.990Z,69.87
2023-02-11T16:39:58.451Z,70.19
2023-02-11T16:42:25.575Z,70.37
2023-02-11T16:44:52.503Z,69.98
2023-02-11T16:47:28.806Z,69.60
2023-02-11T16:49:56.895Z,69.59
2023-02-11T16:52:24.549Z,69.67
2023-02-11T16:54:51.817Z,70.47
2023-02-11T16:57:29.966Z,70.31
2023-02-11T16:59:59.228Z,70.34
2023-02-11T17:02:27.635Z,69.48
2023-02-11T17:04:56.120Z,68.55
2023-02-11T17:07:23.211Z,67.68
2023-02-11T17:09:51.088Z,67.83
2023-02-11T17:12:18.568Z,68.43
2023-02-11T17:14:45.632Z,66.46
2023-02-11T17:17:13.069Z,65.19
2023-02-11T17:19:40.341Z,65.71
2023-02-11T17:22:07.396Z,66.33
2023-02-11T17:24:34.275Z,68.13
2023-02-11T17:27:01.139Z,67.78
2023-02-11T17:29:28.480Z,67.58
2023-02-11T17:31:55.521Z,66.96
2023-02-11T17:34:23.285Z,66.64
2023-02-11T17:36:50.363Z,66.94
2023-02-11T17:39:17.288Z,67.18
2023-02-11T17:41:44.221Z,67.46
2023-02-11T17:44:12.597Z,67.47
2023-02-11T17:46:39.740Z,66.65
2023-02-11T17:49:06.726Z,66.09
2023-02-11T17:51:36.286Z,65.41
2023-02-11T17:54:10.977Z,65.32
2023-02-11T17:56:40.212Z,65.26
2023-02-11T17:59:08.826Z,66.29
2023-02-11T18:01:37.053Z,66.09
2023-02-11T18:04:05.435Z,66.22
2023-02-11T18:06:33.953Z,66.22
2023-02-11T18:09:04.250Z,67.19
2023-02-11T18:11:33.188Z,67.65
2023-02-11T18:14:01.865Z,67.65
2023-02-11T18:16:30.558Z,67.26
2023-02-11T18:18:59.003Z,68.18
2023-02-11T18:21:26.132Z,68.43
2023-02-11T18:23:53.775Z,69.17
2023-02-11T18:26:22.077Z,69.33
2023-02-11T18:28:49.323Z,69.52
2023-02-11T18:31:17.540Z,69.51
2023-02-11T18:33:45.022Z,68.59
2023-02-11T18:36:15.388Z,68.64
2023-02-11T18:38:44.349Z,69.13
2023-02-11T18:41:12.011Z,69.05
2023-02-11T18:43:40.263Z,69.53
2023-02-11T18:46:13.436Z,68.95
2023-02-11T18:48:41.284Z,68.08
2023-02-11T18:51:10.669Z,67.83
2023-02-11T18:53:37.826Z,66.30
2023-02-11T18:56:10.808Z,67.55
2023-02-11T18:58:38.314Z,67.24
2023-02-11T19:01:18.139Z,66.88
2023-02-11T19:03:45.508Z,65.11
2023-02-11T19:06:26.856Z,64.32
2023-02-11T19:08:57.547Z,61.57
2023-02-11T19:11:45.422Z,61.16
2023-02-11T19:14:12.788Z,59.83
2023-02-11T19:16:41.402Z,59.32
2023-02-11T19:19:08.813Z,58.66
2023-02-11T19:21:36.824Z,57.53
2023-02-11T19:24:07.982Z,56.09
2023-02-11T19:26:35.660Z,56.08
2023-02-11T19:29:02.621Z,55.97
2023-02-11T19:31:32.215Z,56.27
2023-02-11T19:34:00.601Z,56.89
2023-02-11T19:36:28.040Z,56.40
2023-02-11T19:38:55.545Z,56.52
2023-02-11T19:41:23.259Z,56.98
2023-02-11T19:43:53.747Z,56.86
2023-02-11T19:46:21.276Z,55.66
2023-02-11T19:48:49.503Z,55.68
2023-02-11T19:51:17.253Z,55.49
2023-02-11T19:53:45.624Z,55.68
2023-02-11T19:56:14.029Z,54.91
2023-02-11T19:58:42.028Z,55.89
2023-02-11T20:01:21.668Z,55.89
2023-02-11T20:03:52.975Z,55.27
2023-02-11T20:06:28.259Z,54.56
2023-02-11T20:09:07.538Z,54.19
2023-02-11T20:11:36.524Z,53.66
2023-02-11T20:14:03.888Z,54.26
2023-02-11T20:16:47.000Z,54.76
2023-02-11T20:19:23.797Z,54.72
2023-02-11T20:21:56.008Z,52.68
2023-02-11T20:24:24.198Z,52.88
2023-02-11T20:26:55.534Z,52.63
2023-02-11T20:29:23.551Z,53.01
2023-02-11T20:31:51.282Z,52.56
2023-02-11T20:34:18.401Z,52.45
2023-02-11T20:36:51.973Z,51.76
2023-02-11T20:39:21.966Z,51.64
2023-02-11T20:41:49.090Z,50.93
2023-02-11T20:44:16.171Z,52.20
2023-02-11T20:46:48.420Z,52.80
2023-02-11T20:49:19.583Z,52.30
2023-02-11T20:51:46.847Z,52.41
2023-02-11T20:54:18.640Z,51.38
2023-02-11T20:56:48.131Z,51.52
2023-02-11T20:59:16.809Z,51.76
2023-02-11T21:01:46.916Z,50.71
2023-02-11T21:04:29.835Z,53.20
2023-02-11T21:06:59.671Z,51.99
2023-02-11T21:09:29.808Z,53.02
2023-02-11T21:11:56.992Z,52.05
2023-02-11T21:14:24.944Z,53.21
2023-02-11T21:16:52.591Z,53.21
2023-02-11T21:19:20.192Z,52.41
2023-02-11T21:21:47.515Z,51.77
2023-02-11T21:24:15.243Z,50.57
2023-02-11T21:26:42.151Z,50.69
2023-02-11T21:29:09.164Z,52.17
2023-02-11T21:31:36.847Z,50.45
2023-02-11T21:34:04.561Z,51.62
2023-02-11T21:36:31.448Z,52.24
2023-02-11T21:38:58.496Z,51.03
2023-02-11T21:41:27.053Z,50.02
2023-02-11T21:43:53.915Z,49.96
2023-02-11T21:46:21.865Z,49.38
2023-02-11T21:48:49.317Z,50.47
2023-02-11T21:51:23.439Z,51.22
2023-02-11T21:54:03.600Z,51.81
2023-02-11T21:56:31.794Z,51.49
2023-02-11T21:59:00.184Z,49.04
2023-02-11T22:01:30.462Z,49.83
2023-02-11T22:03:58.328Z,52.40
2023-02-11T22:06:31.126Z,51.04
2023-02-11T22:08:58.793Z,50.34
2023-02-11T22:11:25.694Z,50.80
2023-02-11T22:13:56.457Z,52.09
2023-02-11T22:16:24.407Z,52.79
2023-02-11T22:18:51.970Z,53.54
2023-02-11T22:21:21.593Z,52.17
2023-02-11T22:23:48.945Z,51.28
2023-02-11T22:26:22.442Z,51.41
2023-02-11T22:28:50.833Z,51.55
2023-02-11T22:31:21.462Z,51.99
2023-02-11T22:33:48.978Z,51.30
2023-02-11T22:36:19.886Z,51.54
2023-02-11T22:38:47.132Z,51.78
2023-02-11T22:41:14.568Z,50.86
2023-02-11T22:43:43.130Z,51.01
2023-02-11T22:46:12.881Z,50.71
2023-02-11T22:48:40.199Z,50.95
2023-02-11T22:51:10.668Z,51.97
2023-02-11T22:53:37.638Z,50.98
2023-02-11T22:56:15.034Z,51.00
2023-02-11T22:58:42.440Z,51.92
2023-02-11T23:01:09.565Z,51.74
2023-02-11T23:03:36.589Z,52.53
2023-02-11T23:06:03.940Z,52.84
2023-02-11T23:08:32.554Z,51.59
2023-02-11T23:11:20.965Z,50.89
2023-02-11T23:13:50.131Z,52.57
2023-02-11T23:16:23.691Z,53.77
2023-02-11T23:18:51.609Z,55.27
2023-02-11T23:21:24.596Z,55.60
2023-02-11T23:23:57.147Z,54.78
2023-02-11T23:26:24.911Z,53.59
2023-02-11T23:28:52.052Z,54.49
2023-02-11T23:31:26.835Z,55.10
2023-02-11T23:33:54.240Z,55.97
2023-02-11T23:36:22.965Z,56.78
2023-02-11T23:38:50.044Z,56.12
2023-02-11T23:41:17.794Z,54.45
2023-02-11T23:43:44.847Z,54.36
2023-02-11T23:46:12.038Z,53.59
2023-02-11T23:48:40.569Z,52.98
2023-02-11T23:51:09.862Z,54.61
2023-02-11T23:53:40.501Z,54.38
2023-02-11T23:56:10.821Z,54.38
2023-02-11T23:58:37.969Z,54.59
